Terminal Aerodrome Forecast
Issued by NWS Blacksburg, VA

Current Version | Previous Version | Graphics & Text | Print | Product List | Glossary On
Versions: 1 2 3 4 5 6 7 8 9 10 11 12 13 14 15 16 17 18 19 20 21 22 23 24 25 26 27 28 29 30 31 32 33 34 35 36 37 38 39 40 41
000
FTUS41 KRNK 270520
TAFBLF
TAF
KBLF 270520Z 2706/2806 30012G22KT 6SM -SN OVC006
     FM271100 29011G21KT 4SM -SN OVC004
     FM271600 30010G20KT P6SM -SHSN SCT007 OVC013
      TEMPO 2716/2720 5SM -SHSN
     FM272300 30008KT P6SM BKN015=

USA.gov is the U.S. government's official web portal to all federal, state and local government web resources and services.